createdAt,value
2018-12-24T00:00:05.707Z,1006.79
2018-12-24T00:01:26.688Z,1006.75
2018-12-24T00:02:05.674Z,1006.75
2018-12-24T00:03:26.653Z,1006.78
2018-12-24T00:04:05.616Z,1006.86
2018-12-24T00:05:05.602Z,1006.82
2018-12-24T00:06:26.591Z,1006.83
2018-12-24T00:07:05.550Z,1006.86
2018-12-24T00:08:26.542Z,1006.89
2018-12-24T00:09:05.518Z,1006.95
2018-12-24T00:10:05.490Z,1006.93
2018-12-24T00:11:26.482Z,1006.99
2018-12-24T00:12:07.156Z,1006.99
2018-12-24T00:13:26.440Z,1007.00
2018-12-24T00:14:05.415Z,1007.03
2018-12-24T00:15:05.405Z,1007.05
2018-12-24T00:16:26.366Z,1007.03
2018-12-24T00:17:05.350Z,1006.95
2018-12-24T00:18:26.334Z,1006.96
2018-12-24T00:19:05.315Z,1006.91
2018-12-24T00:20:05.286Z,1006.98
2018-12-24T00:21:26.265Z,1006.98
2018-12-24T00:22:05.241Z,1007.02
2018-12-24T00:23:26.230Z,1006.98
2018-12-24T00:24:05.204Z,1007.00
2018-12-24T00:25:05.185Z,1007.01
2018-12-24T00:26:26.178Z,1007.06
2018-12-24T00:27:05.144Z,1007.14
2018-12-24T00:28:26.120Z,1007.21
2018-12-24T00:29:05.102Z,1007.21
2018-12-24T00:30:05.077Z,1007.24
2018-12-24T00:31:26.054Z,1007.27
2018-12-24T00:32:05.050Z,1007.27
2018-12-24T00:33:26.015Z,1007.31
2018-12-24T00:34:05.001Z,1007.33
2018-12-24T00:35:04.979Z,1007.32
2018-12-24T00:36:25.958Z,1007.34
2018-12-24T00:37:04.939Z,1007.42
2018-12-24T00:38:25.919Z,1007.41
2018-12-24T00:39:04.897Z,1007.45
2018-12-24T00:40:04.866Z,1007.50
2018-12-24T00:41:25.857Z,1007.49
2018-12-24T00:42:04.826Z,1007.52
2018-12-24T00:43:25.815Z,1007.56
2018-12-24T00:44:04.787Z,1007.54
2018-12-24T00:45:04.769Z,1007.58
2018-12-24T00:46:25.754Z,1007.59
2018-12-24T00:47:04.726Z,1007.56
2018-12-24T00:48:25.703Z,1007.62
2018-12-24T00:49:04.701Z,1007.60
2018-12-24T00:50:04.668Z,1007.66
2018-12-24T00:51:25.647Z,1007.68
2018-12-24T00:52:04.631Z,1007.71
2018-12-24T00:53:25.611Z,1007.78
2018-12-24T00:54:04.578Z,1007.78
2018-12-24T00:55:04.556Z,1007.79
2018-12-24T00:56:25.539Z,1007.82
2018-12-24T00:57:04.515Z,1007.83
2018-12-24T00:58:25.496Z,1007.90
2018-12-24T00:59:04.473Z,1007.94
2018-12-24T01:00:04.457Z,1007.99
2018-12-24T01:01:25.442Z,1007.99
2018-12-24T01:02:04.418Z,1008.01
2018-12-24T01:03:25.391Z,1008.03
2018-12-24T01:04:04.377Z,1008.08
2018-12-24T01:05:04.350Z,1008.11
2018-12-24T01:06:25.332Z,1008.13
2018-12-24T01:07:04.322Z,1008.12
2018-12-24T01:08:25.294Z,1008.11
2018-12-24T01:09:04.269Z,1008.17
2018-12-24T01:10:04.248Z,1008.22
2018-12-24T01:11:25.228Z,1008.20
2018-12-24T01:12:04.207Z,1008.26
2018-12-24T01:13:25.187Z,1008.25
2018-12-24T01:14:04.182Z,1008.25
2018-12-24T01:15:04.161Z,1008.29
2018-12-24T01:16:25.124Z,1008.32
2018-12-24T01:17:04.104Z,1008.34
2018-12-24T01:18:25.091Z,1008.37
2018-12-24T01:19:04.076Z,1008.34
2018-12-24T01:20:04.047Z,1008.37
2018-12-24T01:21:25.024Z,1008.39
2018-12-24T01:22:04.008Z,1008.41
2018-12-24T01:23:24.987Z,1008.44
2018-12-24T01:24:03.968Z,1008.51
2018-12-24T01:25:03.946Z,1008.49
2018-12-24T01:26:24.918Z,1008.49
2018-12-24T01:27:03.894Z,1008.52
2018-12-24T01:28:24.879Z,1008.52
2018-12-24T01:29:03.866Z,1008.57
2018-12-24T01:30:03.835Z,1008.54
2018-12-24T01:31:24.812Z,1008.58
2018-12-24T01:32:03.869Z,1008.60
2018-12-24T01:33:24.774Z,1008.63
2018-12-24T01:34:03.767Z,1008.61
2018-12-24T01:35:03.739Z,1008.68
2018-12-24T01:36:24.714Z,1008.71
2018-12-24T01:37:03.689Z,1008.71
2018-12-24T01:38:24.670Z,1008.70
2018-12-24T01:39:03.650Z,1008.73
2018-12-24T01:40:03.635Z,1008.72
2018-12-24T01:41:24.609Z,1008.78
2018-12-24T01:42:03.596Z,1008.78
2018-12-24T01:43:24.569Z,1008.82
2018-12-24T01:44:03.545Z,1008.77
2018-12-24T01:45:03.531Z,1008.84
2018-12-24T01:46:24.505Z,1008.86
2018-12-24T01:47:03.493Z,1008.84
2018-12-24T01:48:24.466Z,1008.93
2018-12-24T01:49:03.442Z,1008.91
2018-12-24T01:50:03.422Z,1008.90
2018-12-24T01:51:24.404Z,1008.97
2018-12-24T01:52:03.378Z,1008.97
2018-12-24T01:53:24.374Z,1009.00
2018-12-24T01:54:03.339Z,1009.07
2018-12-24T01:55:03.335Z,1009.08
2018-12-24T01:56:24.297Z,1009.15
2018-12-24T01:57:03.285Z,1009.12
2018-12-24T01:58:24.269Z,1009.17
2018-12-24T01:59:03.241Z,1009.20
2018-12-24T02:00:03.263Z,1009.19
2018-12-24T02:01:24.197Z,1009.19
2018-12-24T02:02:03.177Z,1009.22
2018-12-24T02:03:24.152Z,1009.26
2018-12-24T02:04:03.134Z,1009.23
2018-12-24T02:05:03.120Z,1009.28
2018-12-24T02:06:24.092Z,1009.31
2018-12-24T02:07:03.081Z,1009.33
2018-12-24T02:08:24.056Z,1009.38
2018-12-24T02:09:03.030Z,1009.40
2018-12-24T02:10:03.009Z,1009.39
2018-12-24T02:11:23.997Z,1009.40
2018-12-24T02:12:02.989Z,1009.36
2018-12-24T02:13:23.951Z,1009.39
2018-12-24T02:14:02.927Z,1009.44
2018-12-24T02:15:02.912Z,1009.45
2018-12-24T02:16:23.889Z,1009.46
2018-12-24T02:17:02.867Z,1009.48
2018-12-24T02:18:23.861Z,1009.48
2018-12-24T02:19:02.837Z,1009.48
2018-12-24T02:20:02.806Z,1009.50
2018-12-24T02:21:23.788Z,1009.49
2018-12-24T02:22:02.781Z,1009.51
2018-12-24T02:23:23.742Z,1009.51
2018-12-24T02:24:02.731Z,1009.52
2018-12-24T02:25:02.711Z,1009.54
2018-12-24T02:26:23.686Z,1009.52
2018-12-24T02:27:02.668Z,1009.56
2018-12-24T02:28:23.655Z,1009.57
2018-12-24T02:29:02.623Z,1009.56
2018-12-24T02:30:02.628Z,1009.58
2018-12-24T02:31:23.590Z,1009.62
2018-12-24T02:32:02.565Z,1009.64
2018-12-24T02:33:23.543Z,1009.63
2018-12-24T02:34:02.527Z,1009.67
2018-12-24T02:35:02.503Z,1009.70
2018-12-24T02:36:23.490Z,1009.71
2018-12-24T02:37:02.459Z,1009.73
2018-12-24T02:38:23.438Z,1009.78
2018-12-24T02:39:02.419Z,1009.81
2018-12-24T02:40:02.422Z,1009.85
2018-12-24T02:41:23.379Z,1009.83
2018-12-24T02:42:02.358Z,1009.91
2018-12-24T02:43:23.346Z,1009.89
2018-12-24T02:44:02.318Z,1009.93
2018-12-24T02:45:02.298Z,1009.96
2018-12-24T02:46:23.283Z,1009.95
2018-12-24T02:47:02.254Z,1009.99
2018-12-24T02:48:23.246Z,1009.98
2018-12-24T02:49:02.215Z,1010.00
2018-12-24T02:50:02.194Z,1010.00
2018-12-24T02:51:23.178Z,1010.00
2018-12-24T02:52:02.151Z,1010.05
2018-12-24T02:53:23.136Z,1010.10
2018-12-24T02:54:02.118Z,1010.10
2018-12-24T02:55:02.090Z,1010.15
2018-12-24T02:56:23.081Z,1010.14
2018-12-24T02:57:02.056Z,1010.21
2018-12-24T02:58:23.030Z,1010.22
2018-12-24T02:59:02.013Z,1010.20
2018-12-24T03:00:02.001Z,1010.19
2018-12-24T03:01:22.989Z,1010.18
2018-12-24T03:02:01.962Z,1010.21
2018-12-24T03:03:22.933Z,1010.21
2018-12-24T03:04:01.917Z,1010.23
2018-12-24T03:05:01.895Z,1010.27
2018-12-24T03:06:22.882Z,1010.27
2018-12-24T03:07:01.851Z,1010.36
2018-12-24T03:08:22.827Z,1010.36
2018-12-24T03:09:01.807Z,1010.40
2018-12-24T03:10:01.786Z,1010.39
2018-12-24T03:11:22.772Z,1010.41
2018-12-24T03:12:01.745Z,1010.48
2018-12-24T03:13:22.727Z,1010.50
2018-12-24T03:14:01.722Z,1010.49
2018-12-24T03:15:01.684Z,1010.55
2018-12-24T03:16:22.664Z,1010.56
2018-12-24T03:17:01.642Z,1010.57
2018-12-24T03:18:22.629Z,1010.56
2018-12-24T03:19:01.612Z,1010.59
2018-12-24T03:20:01.586Z,1010.59
2018-12-24T03:21:22.578Z,1010.57
2018-12-24T03:22:01.561Z,1010.59
2018-12-24T03:23:22.532Z,1010.58
2018-12-24T03:24:01.503Z,1010.55
2018-12-24T03:25:01.488Z,1010.58
2018-12-24T03:26:22.462Z,1010.56
2018-12-24T03:27:01.450Z,1010.65
2018-12-24T03:28:22.443Z,1010.61
2018-12-24T03:29:01.404Z,1010.65
2018-12-24T03:30:01.382Z,1010.68
2018-12-24T03:31:22.412Z,1010.66
2018-12-24T03:32:01.343Z,1010.65
2018-12-24T03:33:22.331Z,1010.64
2018-12-24T03:34:01.301Z,1010.62
2018-12-24T03:35:01.285Z,1010.65
2018-12-24T03:36:22.260Z,1010.67
2018-12-24T03:37:01.244Z,1010.67
2018-12-24T03:38:22.222Z,1010.64
2018-12-24T03:39:01.197Z,1010.74
2018-12-24T03:40:01.200Z,1010.70
2018-12-24T03:41:22.191Z,1010.76
2018-12-24T03:42:01.149Z,1010.78
2018-12-24T03:43:22.126Z,1010.82
2018-12-24T03:44:01.104Z,1010.86
2018-12-24T03:45:01.076Z,1010.89
2018-12-24T03:46:22.056Z,1010.89
2018-12-24T03:47:01.040Z,1010.95
2018-12-24T03:48:22.018Z,1010.94
2018-12-24T03:49:01.000Z,1011.01
2018-12-24T03:50:01.002Z,1010.99
2018-12-24T03:51:21.969Z,1010.98
2018-12-24T03:52:00.936Z,1011.00
2018-12-24T03:53:21.924Z,1011.04
2018-12-24T03:54:00.894Z,1011.04
2018-12-24T03:55:00.873Z,1011.05
2018-12-24T03:56:21.863Z,1011.08
2018-12-24T03:57:00.850Z,1011.08
2018-12-24T03:58:21.821Z,1011.12
2018-12-24T03:59:00.793Z,1011.12
2018-12-24T04:00:00.787Z,1011.15
2018-12-24T04:01:21.758Z,1011.16
2018-12-24T04:02:00.731Z,1011.19
2018-12-24T04:03:21.719Z,1011.22
2018-12-24T04:04:00.697Z,1011.25
2018-12-24T04:05:00.684Z,1011.26
2018-12-24T04:06:21.668Z,1011.32
2018-12-24T04:07:00.640Z,1011.32
2018-12-24T04:08:21.609Z,1011.33
2018-12-24T04:09:00.588Z,1011.33
2018-12-24T04:10:00.680Z,1011.38
2018-12-24T04:11:21.557Z,1011.39
2018-12-24T04:12:00.544Z,1011.45
2018-12-24T04:13:22.712Z,1011.50
2018-12-24T04:14:00.504Z,1011.53
2018-12-24T04:15:00.469Z,1011.58
2018-12-24T04:16:21.450Z,1011.61
2018-12-24T04:17:00.435Z,1011.69
2018-12-24T04:18:21.412Z,1011.73
2018-12-24T04:19:00.387Z,1011.76
2018-12-24T04:20:00.370Z,1011.77
2018-12-24T04:21:22.787Z,1011.78
2018-12-24T04:22:00.338Z,1011.80
2018-12-24T04:23:21.308Z,1011.80
2018-12-24T04:24:00.285Z,1011.85
2018-12-24T04:25:00.274Z,1011.89
2018-12-24T04:26:21.261Z,1011.93
2018-12-24T04:27:00.223Z,1011.95
2018-12-24T04:28:21.211Z,1011.97
2018-12-24T04:29:00.203Z,1012.02
2018-12-24T04:30:00.180Z,1012.05
2018-12-24T04:31:21.143Z,1012.05
2018-12-24T04:32:00.130Z,1012.06
2018-12-24T04:33:21.108Z,1012.08
2018-12-24T04:34:00.100Z,1012.11
2018-12-24T04:35:00.088Z,1012.10
2018-12-24T04:36:21.042Z,1012.18
2018-12-24T04:37:00.029Z,1012.20
2018-12-24T04:38:21.002Z,1012.19
2018-12-24T04:39:00.002Z,1012.21
2018-12-24T04:39:59.961Z,1012.26
2018-12-24T04:41:20.950Z,1012.32
2018-12-24T04:41:59.950Z,1012.28
2018-12-24T04:43:20.915Z,1012.32
2018-12-24T04:43:59.899Z,1012.34
2018-12-24T04:44:59.866Z,1012.32
2018-12-24T04:46:20.849Z,1012.36
2018-12-24T04:46:59.818Z,1012.40
2018-12-24T04:48:20.817Z,1012.41
2018-12-24T04:48:59.794Z,1012.47
2018-12-24T04:49:59.763Z,1012.46
2018-12-24T04:51:20.740Z,1012.53
2018-12-24T04:51:59.714Z,1012.53
2018-12-24T04:53:20.705Z,1012.60
2018-12-24T04:53:59.675Z,1012.55
2018-12-24T04:54:59.663Z,1012.61
2018-12-24T04:56:20.641Z,1012.62
2018-12-24T04:56:59.623Z,1012.69
2018-12-24T04:58:20.619Z,1012.71
2018-12-24T04:58:59.574Z,1012.73
2018-12-24T04:59:59.555Z,1012.77
2018-12-24T05:01:20.536Z,1012.84
2018-12-24T05:01:59.523Z,1012.78
2018-12-24T05:03:20.736Z,1012.84
2018-12-24T05:03:59.480Z,1012.79
2018-12-24T05:04:59.460Z,1012.77
2018-12-24T05:06:20.447Z,1012.87
2018-12-24T05:06:59.417Z,1012.92
2018-12-24T05:08:20.393Z,1012.93
2018-12-24T05:08:59.371Z,1012.95
2018-12-24T05:09:59.365Z,1012.99
2018-12-24T05:11:20.332Z,1013.01
2018-12-24T05:11:59.310Z,1013.00
2018-12-24T05:13:20.300Z,1013.04
2018-12-24T05:13:59.270Z,1013.14
2018-12-24T05:14:59.252Z,1013.15
2018-12-24T05:16:20.234Z,1013.13
2018-12-24T05:16:59.214Z,1013.20
2018-12-24T05:18:20.194Z,1013.16
2018-12-24T05:18:59.206Z,1013.23
2018-12-24T05:19:59.156Z,1013.23
2018-12-24T05:21:20.132Z,1013.28
2018-12-24T05:21:59.107Z,1013.27
2018-12-24T05:23:20.087Z,1013.31
2018-12-24T05:23:59.072Z,1013.33
2018-12-24T05:24:59.041Z,1013.31
2018-12-24T05:26:20.038Z,1013.44
2018-12-24T05:26:59.010Z,1013.43
2018-12-24T05:28:19.983Z,1013.46
2018-12-24T05:28:58.973Z,1013.44
2018-12-24T05:29:58.948Z,1013.51
2018-12-24T05:31:19.922Z,1013.54
2018-12-24T05:31:58.912Z,1013.55
2018-12-24T05:33:19.891Z,1013.60
2018-12-24T05:33:58.863Z,1013.69
2018-12-24T05:34:58.842Z,1013.73
2018-12-24T05:36:19.826Z,1013.77
2018-12-24T05:36:58.808Z,1013.77
2018-12-24T05:38:19.782Z,1013.81
2018-12-24T05:38:58.759Z,1013.83
2018-12-24T05:39:58.749Z,1013.88
2018-12-24T05:41:19.740Z,1013.90
2018-12-24T05:41:58.709Z,1013.92
2018-12-24T05:43:19.678Z,1014.03
2018-12-24T05:43:58.664Z,1014.01
2018-12-24T05:44:58.635Z,1014.02
2018-12-24T05:46:19.626Z,1014.06
2018-12-24T05:46:58.597Z,1014.07
2018-12-24T05:48:19.586Z,1014.13
2018-12-24T05:48:58.562Z,1014.13
2018-12-24T05:49:58.535Z,1014.15
2018-12-24T05:51:19.519Z,1014.19
2018-12-24T05:51:58.493Z,1014.18
2018-12-24T05:53:19.485Z,1014.24
2018-12-24T05:53:58.463Z,1014.28
2018-12-24T05:54:58.430Z,1014.30
2018-12-24T05:56:19.428Z,1014.29
2018-12-24T05:56:58.401Z,1014.19
2018-12-24T05:58:19.373Z,1014.30
2018-12-24T05:58:58.360Z,1014.25
2018-12-24T05:59:58.339Z,1014.32
2018-12-24T06:01:19.314Z,1014.27
2018-12-24T06:01:58.300Z,1014.31
2018-12-24T06:03:19.275Z,1014.36
2018-12-24T06:03:58.256Z,1014.39
2018-12-24T06:04:58.228Z,1014.41
2018-12-24T06:06:19.212Z,1014.42
2018-12-24T06:06:58.186Z,1014.47
2018-12-24T06:08:19.169Z,1014.50
2018-12-24T06:08:58.146Z,1014.64
2018-12-24T06:09:58.130Z,1014.54
2018-12-24T06:11:19.104Z,1014.54
2018-12-24T06:11:58.098Z,1014.57
2018-12-24T06:13:19.082Z,1014.63
2018-12-24T06:13:58.358Z,1014.71
2018-12-24T06:14:58.027Z,1014.75
2018-12-24T06:16:19.003Z,1014.81
2018-12-24T06:16:57.981Z,1014.86
2018-12-24T06:18:18.966Z,1014.84
2018-12-24T06:18:57.945Z,1014.95
2018-12-24T06:19:57.933Z,1014.96
2018-12-24T06:21:18.918Z,1015.12
2018-12-24T06:21:57.892Z,1015.11
2018-12-24T06:23:18.863Z,1015.16
2018-12-24T06:23:57.837Z,1015.16
2018-12-24T06:24:57.822Z,1015.19
2018-12-24T06:26:18.800Z,1015.19
2018-12-24T06:26:57.771Z,1015.26
2018-12-24T06:28:18.753Z,1015.18
2018-12-24T06:28:57.740Z,1015.22
2018-12-24T06:29:57.717Z,1015.32
2018-12-24T06:31:18.709Z,1015.32
2018-12-24T06:31:57.702Z,1015.35
2018-12-24T06:33:18.670Z,1015.39
2018-12-24T06:33:57.627Z,1015.48
2018-12-24T06:34:57.606Z,1015.47
2018-12-24T06:36:18.587Z,1015.57
2018-12-24T06:36:57.560Z,1015.64
2018-12-24T06:38:18.786Z,1015.63
2018-12-24T06:38:57.525Z,1015.76
2018-12-24T06:39:57.503Z,1015.73
2018-12-24T06:41:18.604Z,1015.82
2018-12-24T06:41:57.458Z,1015.88
2018-12-24T06:43:18.436Z,1015.90
2018-12-24T06:43:57.424Z,1015.90
2018-12-24T06:44:57.401Z,1015.97
2018-12-24T06:46:18.386Z,1015.92
2018-12-24T06:46:57.361Z,1015.98
2018-12-24T06:48:18.333Z,1015.97
2018-12-24T06:48:57.319Z,1015.99
2018-12-24T06:49:57.296Z,1015.89
2018-12-24T06:51:18.276Z,1015.92
2018-12-24T06:51:57.265Z,1016.19
2018-12-24T06:53:18.241Z,1015.90
2018-12-24T06:53:57.213Z,1015.97
2018-12-24T06:54:57.199Z,1015.98
2018-12-24T06:56:18.172Z,1015.95
2018-12-24T06:56:57.148Z,1015.90
2018-12-24T06:58:18.128Z,1016.03
2018-12-24T06:58:57.109Z,1016.01
2018-12-24T06:59:57.080Z,1016.09
2018-12-24T07:01:18.063Z,1016.08
2018-12-24T07:01:57.038Z,1016.08
2018-12-24T07:03:18.022Z,1016.15
2018-12-24T07:03:56.999Z,1016.22
2018-12-24T07:04:56.991Z,1016.21
2018-12-24T07:06:17.956Z,1016.23
2018-12-24T07:06:56.937Z,1016.28
2018-12-24T07:08:17.922Z,1016.23
2018-12-24T07:08:56.891Z,1016.24
2018-12-24T07:09:56.881Z,1016.29
2018-12-24T07:11:17.851Z,1016.19
2018-12-24T07:11:56.848Z,1016.24
2018-12-24T07:13:17.816Z,1016.24
2018-12-24T07:13:56.790Z,1016.21
2018-12-24T07:14:56.774Z,1016.31
2018-12-24T07:16:17.751Z,1016.28
2018-12-24T07:16:56.723Z,1016.32
2018-12-24T07:18:17.720Z,1016.36
2018-12-24T07:18:56.691Z,1016.39
2018-12-24T07:19:56.670Z,1016.42
2018-12-24T07:21:17.651Z,1016.47
2018-12-24T07:21:56.617Z,1016.52
2018-12-24T07:23:17.603Z,1016.45
2018-12-24T07:23:56.582Z,1016.49
2018-12-24T07:24:56.557Z,1016.43
2018-12-24T07:26:17.531Z,1016.41
2018-12-24T07:26:56.517Z,1016.41
2018-12-24T07:28:17.494Z,1016.46
2018-12-24T07:28:59.134Z,1016.48
2018-12-24T07:29:56.446Z,1016.55
2018-12-24T07:31:17.969Z,1016.54
2018-12-24T07:31:56.407Z,1016.56
2018-12-24T07:33:17.390Z,1016.56
2018-12-24T07:33:56.370Z,1016.58
2018-12-24T07:34:56.345Z,1016.62
2018-12-24T07:36:17.321Z,1016.60
2018-12-24T07:36:56.313Z,1016.67
2018-12-24T07:38:17.278Z,1016.71
2018-12-24T07:38:56.258Z,1016.74
2018-12-24T07:39:56.242Z,1016.73
2018-12-24T07:41:17.215Z,1016.77
2018-12-24T07:41:56.195Z,1016.77
2018-12-24T07:43:17.178Z,1016.77
2018-12-24T07:43:56.161Z,1016.70
2018-12-24T07:44:56.134Z,1016.72
2018-12-24T07:46:17.108Z,1016.73
2018-12-24T07:46:56.085Z,1016.72
2018-12-24T07:48:17.074Z,1016.71
2018-12-24T07:48:56.045Z,1016.69
2018-12-24T07:49:56.035Z,1016.76
2018-12-24T07:51:17.004Z,1016.75
2018-12-24T07:51:55.977Z,1016.78
2018-12-24T07:53:16.968Z,1016.80
2018-12-24T07:53:55.952Z,1016.80
2018-12-24T07:54:55.922Z,1016.81
2018-12-24T07:56:16.902Z,1016.77
2018-12-24T07:56:55.871Z,1016.72
2018-12-24T07:58:16.854Z,1016.82
2018-12-24T07:58:55.845Z,1016.81
2018-12-24T07:59:55.806Z,1016.82
2018-12-24T08:01:16.823Z,1016.88
2018-12-24T08:01:55.800Z,1016.97
2018-12-24T08:03:16.770Z,1016.98
2018-12-24T08:03:55.729Z,1017.00
2018-12-24T08:04:55.738Z,1017.03
2018-12-24T08:06:16.690Z,1017.04
2018-12-24T08:06:55.699Z,1017.03
2018-12-24T08:08:16.653Z,1017.07
2018-12-24T08:08:55.613Z,1017.13
2018-12-24T08:09:55.598Z,1017.13
2018-12-24T08:11:16.586Z,1017.10
2018-12-24T08:11:55.554Z,1017.09
2018-12-24T08:13:16.536Z,1017.12
2018-12-24T08:13:55.513Z,1017.09
2018-12-24T08:14:55.488Z,1017.12
2018-12-24T08:16:16.470Z,1017.10
2018-12-24T08:16:55.464Z,1017.11
2018-12-24T08:18:16.422Z,1017.16
2018-12-24T08:18:55.402Z,1017.21
2018-12-24T08:19:55.393Z,1017.25
2018-12-24T08:21:16.360Z,1017.31
2018-12-24T08:21:55.339Z,1017.32
2018-12-24T08:23:17.161Z,1017.34
2018-12-24T08:23:55.291Z,1017.32
2018-12-24T08:24:55.730Z,1017.36
2018-12-24T08:26:16.245Z,1017.42
2018-12-24T08:26:55.239Z,1017.45
2018-12-24T08:28:16.221Z,1017.52
2018-12-24T08:28:55.189Z,1017.53
2018-12-24T08:29:55.158Z,1017.61
2018-12-24T08:31:16.151Z,1017.70
2018-12-24T08:31:55.126Z,1017.61
2018-12-24T08:33:16.112Z,1017.67
2018-12-24T08:33:55.072Z,1017.66
2018-12-24T08:34:55.061Z,1017.66
2018-12-24T08:36:16.046Z,1017.68
2018-12-24T08:36:55.017Z,1017.83
2018-12-24T08:38:15.986Z,1017.87
2018-12-24T08:38:54.971Z,1018.02
2018-12-24T08:39:54.950Z,1018.01
2018-12-24T08:41:15.929Z,1018.10
2018-12-24T08:41:54.899Z,1018.13
2018-12-24T08:43:15.887Z,1018.22
2018-12-24T08:43:54.858Z,1018.33
2018-12-24T08:44:54.837Z,1018.36
2018-12-24T08:46:15.816Z,1018.48
2018-12-24T08:46:54.791Z,1018.54
2018-12-24T08:48:15.774Z,1018.62
2018-12-24T08:48:54.754Z,1018.64
2018-12-24T08:49:54.736Z,1018.70
2018-12-24T08:51:15.704Z,1018.73
2018-12-24T08:51:54.684Z,1018.78
2018-12-24T08:53:15.671Z,1018.81
2018-12-24T08:53:54.641Z,1018.83
2018-12-24T08:54:54.614Z,1018.86
2018-12-24T08:56:15.613Z,1018.98
2018-12-24T08:56:54.570Z,1018.99
2018-12-24T08:58:15.559Z,1019.04
2018-12-24T08:58:54.525Z,1019.15
2018-12-24T08:59:54.512Z,1019.16
2018-12-24T09:01:15.489Z,1019.23
2018-12-24T09:01:54.464Z,1019.25
2018-12-24T09:03:15.443Z,1019.29
2018-12-24T09:03:54.434Z,1019.27
2018-12-24T09:04:54.405Z,1019.28
2018-12-24T09:06:15.377Z,1019.30
2018-12-24T09:06:54.349Z,1019.28
2018-12-24T09:08:15.338Z,1019.28
2018-12-24T09:08:54.310Z,1019.32
2018-12-24T09:09:54.293Z,1019.37
2018-12-24T09:11:15.265Z,1019.37
2018-12-24T09:11:54.252Z,1019.44
2018-12-24T09:13:15.227Z,1019.41
2018-12-24T09:13:54.207Z,1019.46
2018-12-24T09:14:54.192Z,1019.49
2018-12-24T09:16:15.163Z,1019.45
2018-12-24T09:16:54.137Z,1019.46
2018-12-24T09:18:15.111Z,1019.40
2018-12-24T09:18:54.099Z,1019.46
2018-12-24T09:19:54.078Z,1019.45
2018-12-24T09:21:15.051Z,1019.45
2018-12-24T09:21:54.029Z,1019.49
2018-12-24T09:23:15.006Z,1019.43
2018-12-24T09:23:53.985Z,1019.44
2018-12-24T09:24:53.977Z,1019.50
2018-12-24T09:26:14.939Z,1019.47
2018-12-24T09:26:53.925Z,1019.51
2018-12-24T09:28:14.914Z,1019.55
2018-12-24T09:28:53.883Z,1019.57
2018-12-24T09:29:53.868Z,1019.58
2018-12-24T09:31:14.837Z,1019.62
2018-12-24T09:31:53.822Z,1019.63
2018-12-24T09:33:14.797Z,1019.64
2018-12-24T09:33:53.768Z,1019.63
2018-12-24T09:34:53.747Z,1019.58
2018-12-24T09:36:14.722Z,1019.65
2018-12-24T09:36:53.702Z,1019.72
2018-12-24T09:38:14.688Z,1019.64
2018-12-24T09:38:53.664Z,1019.72
2018-12-24T09:39:53.674Z,1019.77
2018-12-24T09:41:14.621Z,1019.78
2018-12-24T09:41:53.595Z,1019.82
2018-12-24T09:43:14.571Z,1019.82
2018-12-24T09:43:53.547Z,1019.74
2018-12-24T09:44:58.988Z,1019.77
2018-12-24T09:46:14.513Z,1019.79
2018-12-24T09:46:53.481Z,1019.80
2018-12-24T09:48:14.472Z,1019.84
2018-12-24T09:48:53.439Z,1019.84
2018-12-24T09:49:53.419Z,1019.89
2018-12-24T09:51:14.397Z,1019.89
2018-12-24T09:51:53.393Z,1019.94
2018-12-24T09:53:14.371Z,1019.87
2018-12-24T09:53:53.347Z,1019.93
2018-12-24T09:54:53.314Z,1019.96
2018-12-24T09:56:14.288Z,1019.92
2018-12-24T09:56:53.280Z,1020.01
2018-12-24T09:58:14.244Z,1019.99
2018-12-24T09:58:53.220Z,1019.99
2018-12-24T09:59:53.206Z,1020.06
2018-12-24T10:01:14.196Z,1020.02
2018-12-24T10:01:53.170Z,1020.03
2018-12-24T10:03:14.149Z,1020.00
2018-12-24T10:03:53.114Z,1020.04
2018-12-24T10:04:53.102Z,1020.08
2018-12-24T10:06:14.074Z,1020.07
2018-12-24T10:06:53.048Z,1020.05
2018-12-24T10:08:14.039Z,1020.09
2018-12-24T10:08:53.017Z,1020.06
2018-12-24T10:09:52.989Z,1020.11
2018-12-24T10:11:13.965Z,1020.13
2018-12-24T10:11:52.955Z,1020.08
2018-12-24T10:13:13.925Z,1020.10
2018-12-24T10:13:52.894Z,1020.14
2018-12-24T10:14:53.639Z,1020.09
2018-12-24T10:16:13.849Z,1020.12
2018-12-24T10:16:52.829Z,1020.10
2018-12-24T10:18:13.828Z,1020.14
2018-12-24T10:18:52.794Z,1020.18
2018-12-24T10:19:52.763Z,1020.21
2018-12-24T10:21:13.752Z,1020.18
2018-12-24T10:21:52.726Z,1020.24
2018-12-24T10:23:13.706Z,1020.22
2018-12-24T10:23:52.686Z,1020.25
2018-12-24T10:24:52.655Z,1020.27
2018-12-24T10:26:13.640Z,1020.29
2018-12-24T10:26:52.618Z,1020.31
2018-12-24T10:28:13.608Z,1020.35
2018-12-24T10:28:52.581Z,1020.35
2018-12-24T10:29:52.555Z,1020.38
2018-12-24T10:31:13.526Z,1020.39
2018-12-24T10:31:52.505Z,1020.41
2018-12-24T10:33:13.486Z,1020.39
2018-12-24T10:33:52.461Z,1020.38
2018-12-24T10:34:52.436Z,1020.40
2018-12-24T10:36:13.424Z,1020.37
2018-12-24T10:36:52.404Z,1020.39
2018-12-24T10:38:13.384Z,1020.40
2018-12-24T10:38:52.361Z,1020.39
2018-12-24T10:39:52.335Z,1020.41
2018-12-24T10:41:13.321Z,1020.44
2018-12-24T10:41:52.302Z,1020.37
2018-12-24T10:43:13.264Z,1020.34
2018-12-24T10:43:52.249Z,1020.41
2018-12-24T10:44:52.227Z,1020.42
2018-12-24T10:46:13.207Z,1020.38
2018-12-24T10:46:52.190Z,1020.39
2018-12-24T10:48:13.166Z,1020.35
2018-12-24T10:48:52.142Z,1020.38
2018-12-24T10:49:52.123Z,1020.30
2018-12-24T10:51:13.092Z,1020.35
2018-12-24T10:51:52.090Z,1020.38
2018-12-24T10:53:13.062Z,1020.35
2018-12-24T10:53:52.027Z,1020.29
2018-12-24T10:54:52.023Z,1020.24
2018-12-24T10:56:12.983Z,1020.28
2018-12-24T10:56:51.974Z,1020.31
2018-12-24T10:58:12.947Z,1020.27
2018-12-24T10:58:51.916Z,1020.24
2018-12-24T10:59:51.911Z,1020.25
2018-12-24T11:01:12.875Z,1020.24
2018-12-24T11:01:51.857Z,1020.31
2018-12-24T11:03:12.839Z,1020.33
2018-12-24T11:03:51.866Z,1020.30
2018-12-24T11:04:51.791Z,1020.29
2018-12-24T11:06:12.766Z,1020.30
2018-12-24T11:06:51.753Z,1020.31
2018-12-24T11:08:12.741Z,1020.24
2018-12-24T11:08:51.704Z,1020.25
2018-12-24T11:09:51.680Z,1020.28
2018-12-24T11:11:12.668Z,1020.23
2018-12-24T11:11:51.645Z,1020.22
2018-12-24T11:13:12.618Z,1020.24
2018-12-24T11:13:51.597Z,1020.27
2018-12-24T11:14:51.586Z,1020.30
2018-12-24T11:16:12.556Z,1020.33
2018-12-24T11:16:51.532Z,1020.32
2018-12-24T11:18:12.523Z,1020.36
2018-12-24T11:18:51.487Z,1020.37
2018-12-24T11:19:53.693Z,1020.34
2018-12-24T11:21:12.447Z,1020.34
2018-12-24T11:21:51.435Z,1020.33
2018-12-24T11:23:12.421Z,1020.33
2018-12-24T11:23:51.379Z,1020.37
2018-12-24T11:24:51.362Z,1020.39
2018-12-24T11:26:12.348Z,1020.38
2018-12-24T11:26:51.326Z,1020.38
2018-12-24T11:28:12.304Z,1020.44
2018-12-24T11:28:51.291Z,1020.49
2018-12-24T11:29:51.430Z,1020.49
2018-12-24T11:31:12.240Z,1020.53
2018-12-24T11:31:51.211Z,1020.56
2018-12-24T11:33:12.193Z,1020.48
2018-12-24T11:33:51.170Z,1020.53
2018-12-24T11:34:51.158Z,1020.54
2018-12-24T11:36:12.128Z,1020.55
2018-12-24T11:36:51.115Z,1020.55
2018-12-24T11:38:12.085Z,1020.56
2018-12-24T11:38:51.078Z,1020.55
2018-12-24T11:39:51.050Z,1020.57
2018-12-24T11:41:12.033Z,1020.59
2018-12-24T11:41:51.005Z,1020.65
2018-12-24T11:43:11.994Z,1020.68
2018-12-24T11:43:50.966Z,1020.73
2018-12-24T11:44:50.947Z,1020.78
2018-12-24T11:46:11.922Z,1020.78
2018-12-24T11:46:50.892Z,1020.75
2018-12-24T11:48:11.880Z,1020.77
2018-12-24T11:48:50.855Z,1020.73
2018-12-24T11:49:50.832Z,1020.75
2018-12-24T11:51:11.817Z,1020.72
2018-12-24T11:51:50.806Z,1020.71
2018-12-24T11:53:11.770Z,1020.65
2018-12-24T11:53:50.755Z,1020.70
2018-12-24T11:54:50.728Z,1020.70
2018-12-24T11:56:11.712Z,1020.74
2018-12-24T11:56:50.685Z,1020.78
2018-12-24T11:58:13.399Z,1020.75
2018-12-24T11:58:50.641Z,1020.80
2018-12-24T11:59:50.630Z,1020.82
2018-12-24T12:01:11.623Z,1020.86
2018-12-24T12:01:50.581Z,1020.91
2018-12-24T12:03:12.751Z,1020.87
2018-12-24T12:03:50.545Z,1020.86
2018-12-24T12:04:50.527Z,1020.89